createdAt,value
2023-01-04T04:58:30.821Z,3.65
2023-01-04T05:01:17.378Z,2.83
2023-01-04T05:04:04.728Z,5.38
2023-01-04T05:06:52.906Z,5.38
2023-01-04T05:09:38.385Z,4.75
2023-01-04T05:12:42.546Z,4.88
2023-01-04T05:15:31.699Z,5.13
2023-01-04T05:18:19.235Z,4.53
2023-01-04T05:21:06.259Z,4.85
2023-01-04T05:23:52.196Z,3.47
2023-01-04T05:26:38.224Z,5.60
2023-01-04T05:29:42.650Z,4.53
2023-01-04T05:32:28.299Z,4.18
2023-01-04T05:35:14.120Z,6.65
2023-01-04T05:38:01.378Z,4.32
2023-01-04T05:40:47.499Z,3.60
2023-01-04T05:43:33.160Z,4.13
2023-01-04T05:46:18.775Z,4.50
2023-01-04T05:49:04.263Z,4.90
2023-01-04T05:51:49.939Z,3.97
2023-01-04T05:54:36.789Z,4.97
2023-01-04T05:57:22.341Z,7.07
2023-01-04T06:00:10.114Z,6.70
2023-01-04T06:02:58.561Z,7.03
2023-01-04T06:05:48.791Z,5.68
2023-01-04T06:08:34.514Z,5.72
2023-01-04T06:11:27.419Z,5.88
2023-01-04T06:14:13.465Z,5.75
2023-01-04T06:16:59.440Z,3.90
2023-01-04T06:19:45.031Z,2.78
2023-01-04T06:22:30.710Z,4.28
2023-01-04T06:25:17.329Z,3.60
2023-01-04T06:28:04.413Z,6.05
2023-01-04T06:30:50.378Z,3.65
2023-01-04T06:33:36.117Z,6.50
2023-01-04T06:36:21.686Z,3.78
2023-01-04T06:39:08.780Z,4.30
2023-01-04T06:41:56.117Z,6.28
2023-01-04T06:44:45.923Z,4.35
2023-01-04T06:47:31.484Z,4.72
2023-01-04T06:50:17.368Z,7.10
2023-01-04T06:53:03.271Z,6.20
2023-01-04T06:55:49.168Z,6.60
2023-01-04T06:58:34.666Z,9.23
2023-01-04T07:01:21.632Z,6.25
2023-01-04T07:04:07.745Z,6.07
2023-01-04T07:06:53.693Z,7.25
2023-01-04T07:09:39.556Z,9.32
2023-01-04T07:12:25.810Z,9.68
2023-01-04T07:15:37.175Z,7.15
2023-01-04T07:18:19.177Z,9.85
2023-01-04T07:21:06.096Z,6.85
2023-01-04T07:23:51.582Z,7.35
2023-01-04T07:26:37.539Z,10.32
2023-01-04T07:29:22.895Z,6.03
2023-01-04T07:32:13.652Z,6.88
2023-01-04T07:35:01.417Z,7.10
2023-01-04T07:37:52.180Z,6.30
2023-01-04T07:40:55.989Z,4.82
2023-01-04T07:43:42.204Z,6.88
2023-01-04T07:46:28.078Z,6.05
2023-01-04T07:49:17.744Z,4.35
2023-01-04T07:52:05.267Z,5.82
2023-01-04T07:54:50.959Z,5.72
2023-01-04T07:57:36.773Z,4.25
2023-01-04T08:00:22.793Z,4.10
2023-01-04T08:03:08.851Z,10.07
2023-01-04T08:05:54.700Z,6.65
2023-01-04T08:08:42.362Z,7.13
2023-01-04T08:11:28.496Z,8.35
2023-01-04T08:14:14.300Z,7.68
2023-01-04T08:16:59.773Z,6.55
2023-01-04T08:19:46.701Z,6.53
2023-01-04T08:22:32.370Z,5.45
2023-01-04T08:25:19.719Z,5.20
2023-01-04T08:28:05.369Z,5.57
2023-01-04T08:30:51.094Z,4.40
2023-01-04T08:33:38.327Z,5.03
2023-01-04T08:36:27.392Z,3.85
2023-01-04T08:39:13.493Z,5.07
2023-01-04T08:42:14.544Z,6.43
2023-01-04T08:45:07.349Z,5.05
2023-01-04T08:47:52.999Z,4.43
2023-01-04T08:50:38.672Z,4.80
2023-01-04T08:53:24.690Z,5.70
2023-01-04T08:56:11.102Z,6.00
2023-01-04T08:58:57.862Z,9.00
2023-01-04T09:01:44.041Z,5.55
2023-01-04T09:04:29.936Z,7.07
2023-01-04T09:07:15.924Z,5.88
2023-01-04T09:10:01.445Z,6.22
2023-01-04T09:12:47.932Z,6.28
2023-01-04T09:15:36.122Z,7.20
2023-01-04T09:18:30.806Z,6.25
2023-01-04T09:21:20.349Z,6.38
2023-01-04T09:24:06.504Z,9.68
2023-01-04T09:26:52.169Z,8.20
2023-01-04T09:29:38.434Z,9.52
2023-01-04T09:32:26.340Z,6.95
2023-01-04T09:35:12.345Z,7.10
2023-01-04T09:40:54.152Z,7.32
2023-01-04T21:35:08.061Z,23.55
2023-01-04T21:37:54.014Z,26.90
2023-01-04T21:40:41.502Z,33.40
2023-01-04T21:43:29.064Z,30.38
2023-01-04T21:46:15.859Z,27.17
2023-01-04T21:49:02.629Z,21.95
2023-01-04T21:51:48.814Z,28.27
2023-01-04T21:54:34.639Z,25.70
2023-01-04T21:57:20.517Z,36.70
2023-01-04T22:00:09.806Z,26.98
2023-01-04T22:02:55.657Z,35.90
2023-01-04T22:05:41.665Z,25.42
2023-01-04T22:08:27.267Z,34.08
2023-01-04T22:11:14.717Z,30.55
2023-01-04T22:14:00.403Z,20.63
2023-01-04T22:16:47.357Z,20.10
2023-01-04T22:19:33.004Z,22.08
2023-01-04T22:22:18.796Z,20.48
2023-01-04T22:25:04.721Z,26.65
2023-01-04T22:27:50.274Z,18.85
2023-01-04T22:30:40.622Z,25.67
2023-01-04T22:33:27.623Z,25.00
2023-01-04T22:36:22.205Z,24.90
2023-01-04T22:39:08.554Z,26.58
2023-01-04T22:41:54.128Z,23.15
2023-01-04T22:44:40.136Z,24.48
2023-01-04T22:47:25.533Z,27.27
2023-01-04T22:50:12.905Z,28.25
2023-01-04T22:52:58.735Z,30.35
2023-01-04T22:56:17.913Z,31.48
2023-01-04T22:58:53.294Z,28.73
2023-01-04T23:01:40.083Z,29.20
2023-01-04T23:04:25.583Z,25.52
2023-01-04T23:07:13.115Z,25.77
2023-01-04T23:09:59.095Z,23.83
2023-01-04T23:12:44.730Z,29.45
2023-01-04T23:15:30.782Z,37.97
2023-01-04T23:18:16.262Z,29.10
2023-01-04T23:21:02.131Z,24.42
2023-01-04T23:23:50.609Z,30.35
2023-01-04T23:26:36.044Z,19.48
2023-01-04T23:29:22.086Z,30.70
2023-01-04T23:32:08.013Z,34.05
2023-01-04T23:34:53.523Z,26.35
2023-01-04T23:37:39.217Z,28.33
2023-01-04T23:40:26.267Z,26.42
2023-01-04T23:43:11.949Z,31.88
2023-01-04T23:45:57.911Z,33.30
2023-01-04T23:48:44.380Z,33.08
2023-01-04T23:51:30.030Z,26.15
2023-01-04T23:54:15.839Z,30.08
2023-01-04T23:57:03.763Z,23.92
2023-01-04T23:59:49.758Z,35.08
